Jackson County Reynolds Field
KJXN : rendu visible

Aérodrome :











RETROUVEZ-NOUS SUR...

 
LOGIN :

S'inscrire | Disclaimer

   EN    FR    IT 

 









Légende :    VFR   VFR Marginal   IFR   IFR Intensif   IFR Très Intensif
Visi : 
Plafond : 
>= 8 km
>= 3000ft
5 à 8 km
1000 à 3000 ft
1500m à 5 km
500 à 1000 ft
800 à 1500m
200 à 500 ft
< 800m
< 200 ft
Symboles :   Orages  Brouillard  Fortes neiges  Fortes précipitations  Vent > 20 kt






- Altitude de l'aérodrome : 1001 ft


KJXN - Jackson County Reynolds Field

DERNIER METAR :
  • 301710Z 33010G19KT 1 3/4SM -SN OVC012 01/M02 A2974 RMK AO2 SNB1658 P0000 T00061022

METARs EXPIRÉS :
  • 301656Z 32009G19KT 6SM HZ OVC012 01/M02 A2974 RMK AO2 SNE05 SLP079 P0000 T00061022
  • 301605Z 32009G18KT 3SM BR BKN010 OVC014 01/M02 A2975 RMK AO2 SNE05 CIG 007V011 P0000 T00061017
  • 301556Z 32009G18KT 1 1/2SM -SN BR BKN010 OVC016 00/M02 A2976 RMK AO2 SLP085 P0001 T00001017
  • 301546Z 32008G17KT 1 1/4SM -SN BR BKN010 OVC015 00/M02 A2976 RMK AO2 P0001 T00001017
  • 301538Z 32011G21KT 1SM -SN BR BKN008 BKN013 OVC018 00/M02 A2976 RMK AO2 P0001 T00001017
  • 301454Z 32009KT 1 1/2SM -SN BR BKN010 OVC017 00/M02 A2977 RMK AO2 SLP088 P0000 60002 T00001017 58007

TAF KJXN
Valide du 30 à 18h jusqu'au 01 à 18h UTC


301725Z 3018/0118 35014G24KT P6SM BKN015
TEMPO 3018/3020 1SM -SN BR
FM302000 34012G22KT P6SM BKN025
FM010500 35010G18KT 4SM -SN BKN015
FM011600 31012G19KT P6SM OVC025
FIR KZOB / Amérique du Nord



MET'MAP, la Météo Aéronautique d'un coup d'oeil ! - Copyright ORBIFLY Décembre 2007 - Disclaimer

ORBIFLY MET'MAP TEAM :

Programmation & Développement : Alexandra Zaïnal
Sur une idée originale de : Baudouin d'Aumeries
Assistance à la programmation : Marc-Olivier Méhu
Soutien technique & logistique : Manuel Goepfert

Contact : metmap@orbifly.com




SOURCES & CREDITS :

   NOAA       Earth
Advisory